Time;durP1;ratioP1;P1;durP2;ratioP2;P2;SDS_P1;SDS_P2;PMS_P1;PMS_P2;Temp;Humidity;BMP_temperature;BMP_pressure;BME280_temperature;BME280_humidity;BME280_pressure;Samples;Min_cycle;Max_cycle;Signal;HPM_P1;HPM_P2
2021/05/25 00:00:45;;;;;;;6.50;6.10;;;9.50;99.90;;;;;;5077521;28;20709;-65
2021/05/25 00:03:11;;;;;;;6.00;5.70;;;9.40;99.90;;;;;;5078231;28;20190;-63
2021/05/25 00:05:36;;;;;;;6.57;6.00;;;9.50;99.90;;;;;;5089487;28;20556;-66
2021/05/25 00:08:03;;;;;;;5.27;4.97;;;9.50;99.90;;;;;;5095131;28;20181;-63
2021/05/25 00:10:31;;;;;;;6.03;5.23;;;9.50;99.90;;;;;;5085061;28;20205;-65
2021/05/25 00:12:57;;;;;;;5.60;5.30;;;9.60;99.90;;;;;;5081323;28;20174;-63
2021/05/25 00:15:25;;;;;;;5.77;5.20;;;9.50;99.90;;;;;;5086371;28;20165;-66
2021/05/25 00:17:51;;;;;;;5.17;4.97;;;9.60;99.90;;;;;;5094801;28;20256;-65
2021/05/25 00:20:19;;;;;;;5.30;5.00;;;9.50;99.90;;;;;;5074620;28;20209;-66
2021/05/25 00:22:44;;;;;;;5.07;4.77;;;9.60;99.90;;;;;;5074553;28;20178;-65
2021/05/25 00:25:12;;;;;;;5.33;5.00;;;9.60;99.90;;;;;;5091561;28;20257;-63
2021/05/25 00:27:39;;;;;;;5.00;4.70;;;9.60;99.90;;;;;;5074520;28;20647;-65
2021/05/25 00:30:06;;;;;;;5.03;4.80;;;9.60;99.90;;;;;;5090207;28;20463;-64
2021/05/25 00:32:32;;;;;;;4.50;4.30;;;9.60;99.90;;;;;;5082478;28;20173;-65
2021/05/25 00:34:57;;;;;;;5.53;5.20;;;9.60;99.90;;;;;;5094949;28;20747;-66
2021/05/25 00:37:23;;;;;;;6.13;5.63;;;9.60;99.90;;;;;;5088145;28;20171;-66
2021/05/25 00:39:48;;;;;;;5.53;5.23;;;9.70;99.90;;;;;;5073519;28;20293;-64
2021/05/25 00:42:14;;;;;;;5.90;4.43;;;9.80;99.90;;;;;;5082477;28;20178;-64
2021/05/25 00:44:39;;;;;;;4.70;4.50;;;9.70;99.90;;;;;;5082336;28;20169;-65
2021/05/25 00:47:05;;;;;;;5.77;5.27;;;9.80;99.90;;;;;;5094436;28;20169;-63
2021/05/25 00:49:31;;;;;;;4.80;4.57;;;9.70;99.90;;;;;;5086380;28;20230;-64
2021/05/25 00:51:56;;;;;;;4.80;4.60;;;9.70;99.90;;;;;;5088770;28;20174;-64
2021/05/25 00:54:22;;;;;;;4.83;4.57;;;9.70;99.90;;;;;;5088395;28;20174;-65
2021/05/25 00:56:48;;;;;;;5.20;4.90;;;9.60;99.90;;;;;;5087728;28;20173;-65
2021/05/25 00:59:13;;;;;;;4.80;4.60;;;9.50;99.90;;;;;;5093478;28;20205;-65
2021/05/25 01:01:39;;;;;;;4.83;4.63;;;9.40;99.90;;;;;;5088974;28;20513;-63
2021/05/25 01:04:06;;;;;;;4.93;4.63;;;9.40;99.90;;;;;;5075076;28;20182;-62
2021/05/25 01:06:33;;;;;;;4.83;4.53;;;9.20;99.90;;;;;;5079749;28;20177;-65
2021/05/25 01:09:00;;;;;;;5.83;5.40;;;9.20;99.90;;;;;;5092118;28;20540;-62
2021/05/25 01:11:34;;;;;;;5.00;4.70;;;9.10;99.90;;;;;;5080048;28;20172;-63
2021/05/25 01:14:01;;;;;;;4.70;4.40;;;9.10;99.90;;;;;;5092809;28;20183;-65
2021/05/25 01:16:27;;;;;;;4.80;4.40;;;9.10;99.90;;;;;;5073667;28;20213;-65
2021/05/25 01:18:54;;;;;;;4.90;4.70;;;9.10;99.90;;;;;;5073522;28;20209;-64
2021/05/25 01:21:21;;;;;;;5.13;4.83;;;9.10;99.90;;;;;;5086990;28;20181;-64
2021/05/25 01:23:48;;;;;;;5.00;4.63;;;9.10;99.90;;;;;;5093742;28;20193;-65
2021/05/25 01:26:15;;;;;;;4.80;4.53;;;9.10;99.90;;;;;;5075221;28;20659;-63
2021/05/25 01:28:42;;;;;;;5.40;5.00;;;9.00;99.90;;;;;;5082755;28;20679;-61
2021/05/25 01:31:07;;;;;;;5.27;5.07;;;9.00;99.90;;;;;;5084791;28;20212;-66
2021/05/25 01:33:36;;;;;;;5.23;5.00;;;9.00;99.90;;;;;;5073447;28;20201;-65
2021/05/25 01:36:13;;;;;;;5.70;5.40;;;9.00;99.90;;;;;;5079973;28;20315;-65
2021/05/25 01:38:40;;;;;;;5.17;4.70;;;8.90;99.90;;;;;;5093164;28;20193;-66
2021/05/25 01:41:07;;;;;;;4.97;4.67;;;9.00;99.90;;;;;;5086208;28;20257;-66
2021/05/25 01:43:33;;;;;;;5.07;4.67;;;9.00;99.90;;;;;;5088179;28;20507;-66
2021/05/25 01:45:59;;;;;;;5.87;5.33;;;9.00;99.90;;;;;;5087939;28;20185;-66
2021/05/25 01:48:25;;;;;;;5.23;4.73;;;9.00;99.90;;;;;;5072618;28;20171;-65
2021/05/25 01:50:50;;;;;;;5.10;4.70;;;9.00;99.90;;;;;;5074639;28;20207;-66
2021/05/25 01:53:18;;;;;;;5.30;5.00;;;8.90;99.90;;;;;;5092997;28;20165;-64
2021/05/25 01:55:52;;;;;;;6.70;6.30;;;8.80;99.90;;;;;;5091711;28;20695;-66
2021/05/25 01:58:21;;;;;;;6.93;6.43;;;8.80;99.90;;;;;;5082544;28;20204;-63
2021/05/25 02:00:49;;;;;;;7.43;7.07;;;8.80;99.90;;;;;;5090722;28;20286;-64
2021/05/25 02:03:15;;;;;;;6.10;5.77;;;8.80;99.90;;;;;;5083207;28;20252;-64
2021/05/25 02:05:41;;;;;;;6.33;5.03;;;8.80;99.90;;;;;;5092279;28;20197;-63
2021/05/25 02:08:08;;;;;;;5.83;5.53;;;8.90;99.90;;;;;;5072713;28;20201;-65
2021/05/25 02:10:36;;;;;;;5.07;4.80;;;8.90;99.90;;;;;;5075685;28;20205;-66
2021/05/25 02:13:13;;;;;;;5.60;5.20;;;8.90;99.90;;;;;;5073769;28;20181;-66
2021/05/25 02:15:41;;;;;;;4.83;4.53;;;9.00;99.90;;;;;;5072859;28;20170;-65
2021/05/25 02:18:13;;;;;;;4.70;4.40;;;9.10;99.90;;;;;;5077848;28;20197;-63
2021/05/25 02:20:41;;;;;;;4.97;4.47;;;9.10;99.90;;;;;;5088282;28;20174;-66
2021/05/25 02:23:07;;;;;;;4.90;4.70;;;9.20;99.90;;;;;;5072523;28;20201;-65
2021/05/25 02:25:33;;;;;;;6.33;5.93;;;9.20;99.90;;;;;;5075808;28;20177;-64
2021/05/25 02:28:00;;;;;;;5.17;4.87;;;9.30;99.90;;;;;;5092611;28;20536;-63
2021/05/25 02:30:28;;;;;;;4.93;4.63;;;9.30;99.90;;;;;;5089895;28;20250;-65
2021/05/25 02:32:54;;;;;;;4.90;4.63;;;9.30;99.90;;;;;;5083832;28;20174;-63
2021/05/25 02:35:20;;;;;;;5.70;5.20;;;9.20;99.90;;;;;;5091466;28;20672;-63
2021/05/25 02:37:45;;;;;;;5.20;5.00;;;9.20;99.90;;;;;;5071514;28;20240;-64
2021/05/25 02:40:11;;;;;;;10.17;9.67;;;9.10;99.90;;;;;;5078917;28;20202;-66
2021/05/25 02:42:37;;;;;;;4.90;4.70;;;9.00;99.90;;;;;;5080806;28;20186;-66
2021/05/25 02:45:04;;;;;;;7.93;7.53;;;9.00;99.90;;;;;;5085853;28;20182;-64
2021/05/25 02:47:30;;;;;;;6.80;6.50;;;8.90;99.90;;;;;;5080185;28;20545;-63
2021/05/25 02:49:55;;;;;;;8.87;8.47;;;8.90;99.90;;;;;;5087014;28;20209;-62
2021/05/25 02:52:21;;;;;;;10.03;9.50;;;8.90;99.90;;;;;;5086140;28;20173;-65
2021/05/25 02:54:47;;;;;;;11.77;11.17;;;8.90;99.90;;;;;;5088879;28;20170;-66
2021/05/25 02:57:12;;;;;;;5.83;5.40;;;8.90;99.90;;;;;;5071753;28;20635;-64
2021/05/25 02:59:38;;;;;;;8.80;8.27;;;8.80;99.90;;;;;;5072434;28;20601;-64
2021/05/25 03:02:03;;;;;;;8.63;8.13;;;8.80;99.90;;;;;;5086865;28;20213;-65
2021/05/25 03:04:29;;;;;;;8.63;8.23;;;8.70;99.90;;;;;;5071871;28;20189;-65
2021/05/25 03:06:55;;;;;;;5.83;5.53;;;8.60;99.90;;;;;;5086330;28;20176;-62
2021/05/25 03:09:21;;;;;;;5.73;5.47;;;8.70;99.90;;;;;;5088413;28;20555;-62
2021/05/25 03:11:46;;;;;;;6.30;5.93;;;8.70;99.90;;;;;;5076544;28;20197;-62
2021/05/25 03:14:12;;;;;;;6.87;6.53;;;8.80;99.90;;;;;;5072668;28;20253;-63
2021/05/25 03:16:38;;;;;;;6.40;6.10;;;8.90;99.90;;;;;;5078747;28;20181;-64
2021/05/25 03:19:04;;;;;;;4.87;4.67;;;9.00;99.90;;;;;;5072772;28;20205;-65
2021/05/25 03:21:30;;;;;;;6.33;5.93;;;9.00;99.90;;;;;;5071150;28;20170;-62
2021/05/25 03:23:55;;;;;;;5.23;4.93;;;9.10;99.90;;;;;;5084970;28;20647;-62
2021/05/25 03:26:22;;;;;;;5.97;5.67;;;9.10;99.90;;;;;;5090052;28;20227;-63
2021/05/25 03:28:48;;;;;;;5.13;4.80;;;9.20;99.90;;;;;;5082524;28;20193;-62
2021/05/25 03:31:14;;;;;;;5.20;4.90;;;9.20;99.90;;;;;;5080128;28;20185;-62
2021/05/25 03:33:39;;;;;;;6.07;5.77;;;9.20;99.90;;;;;;5084336;28;20250;-63
2021/05/25 03:36:05;;;;;;;5.10;4.80;;;9.10;99.90;;;;;;5071300;28;20308;-63
2021/05/25 03:38:31;;;;;;;6.40;6.10;;;9.10;99.90;;;;;;5086685;28;20200;-63
2021/05/25 03:40:57;;;;;;;7.27;6.90;;;8.90;99.90;;;;;;5082935;28;20185;-63
2021/05/25 03:43:22;;;;;;;5.53;5.13;;;8.80;99.90;;;;;;5075403;28;20261;-63
2021/05/25 03:45:48;;;;;;;5.30;5.10;;;8.70;99.90;;;;;;5091485;28;20185;-63
2021/05/25 03:48:14;;;;;;;6.90;5.13;;;8.60;99.90;;;;;;5088750;28;20192;-62
2021/05/25 03:50:40;;;;;;;9.40;8.83;;;8.50;99.90;;;;;;5071385;28;20235;-63
2021/05/25 03:53:06;;;;;;;9.87;9.27;;;8.50;99.90;;;;;;5071894;28;20167;-63
2021/05/25 04:00:55;;;;;;;7.30;5.20;;;8.40;99.90;;;;;;5086239;28;20189;-63
2021/05/25 04:03:22;;;;;;;6.30;6.00;;;8.40;99.90;;;;;;5090219;28;20256;-62
2021/05/25 04:05:47;;;;;;;8.20;7.80;;;8.40;99.90;;;;;;5074891;28;20261;-63
2021/05/25 04:08:14;;;;;;;5.93;5.63;;;8.40;99.90;;;;;;5071030;28;20206;-64
2021/05/25 04:10:40;;;;;;;5.47;5.17;;;8.40;99.90;;;;;;5078722;28;20198;-63
2021/05/25 04:13:05;;;;;;;5.73;5.43;;;8.50;99.90;;;;;;5071846;28;20302;-63
2021/05/25 04:15:33;;;;;;;7.70;7.30;;;8.40;99.90;;;;;;5083745;28;20213;-63
2021/05/25 04:17:59;;;;;;;5.83;5.43;;;8.40;99.90;;;;;;5090619;28;20169;-63
2021/05/25 04:22:52;;;;;;;5.10;4.80;;;8.50;99.90;;;;;;5093704;28;20221;-65
2021/05/25 04:25:19;;;;;;;5.43;5.13;;;8.50;99.90;;;;;;5059152;28;20178;-65
2021/05/25 04:27:45;;;;;;;5.47;5.17;;;8.50;99.90;;;;;;5077055;28;20238;-65
2021/05/25 04:30:11;;;;;;;5.77;5.20;;;8.50;99.90;;;;;;5068100;28;20205;-65
2021/05/25 04:32:38;;;;;;;5.07;4.87;;;8.60;99.90;;;;;;5086831;28;20222;-65
2021/05/25 04:35:05;;;;;;;6.07;5.67;;;8.70;99.90;;;;;;5088049;28;20265;-65
2021/05/25 04:37:31;;;;;;;5.67;5.27;;;8.80;99.90;;;;;;5057790;28;20182;-64
2021/05/25 04:39:57;;;;;;;6.10;5.70;;;8.90;99.90;;;;;;5078748;28;20205;-65
2021/05/25 04:42:23;;;;;;;6.10;5.80;;;9.00;99.90;;;;;;5074350;28;20303;-65
2021/05/25 04:44:48;;;;;;;5.50;5.10;;;9.10;99.90;;;;;;5077643;28;20223;-65
2021/05/25 04:47:14;;;;;;;5.83;5.53;;;9.30;99.90;;;;;;5094901;28;20236;-65
2021/05/25 04:49:40;;;;;;;5.87;5.37;;;9.40;99.90;;;;;;5074206;28;20197;-65
2021/05/25 04:52:07;;;;;;;5.27;4.50;;;9.60;99.90;;;;;;5056119;28;20178;-64
2021/05/25 04:54:33;;;;;;;6.00;5.50;;;9.70;99.90;;;;;;5074370;28;20264;-63
2021/05/25 04:56:59;;;;;;;8.63;5.20;;;9.70;99.90;;;;;;5078851;28;20181;-63
2021/05/25 04:59:25;;;;;;;5.30;5.00;;;9.60;99.90;;;;;;5066986;28;20193;-64
2021/05/25 05:01:51;;;;;;;4.77;4.47;;;9.50;99.90;;;;;;5065933;28;20710;-64
2021/05/25 05:04:17;;;;;;;5.60;5.13;;;9.40;99.90;;;;;;5073942;28;20206;-64
2021/05/25 05:06:43;;;;;;;5.10;4.90;;;9.40;99.90;;;;;;5068926;28;20230;-64
2021/05/25 05:09:09;;;;;;;8.87;5.33;;;9.30;99.90;;;;;;5094269;28;20556;-64
2021/05/25 05:11:35;;;;;;;5.40;5.00;;;9.40;99.90;;;;;;5060961;28;20178;-64
2021/05/25 05:14:01;;;;;;;5.30;4.90;;;9.40;99.90;;;;;;5056098;28;20181;-64
2021/05/25 05:16:27;;;;;;;5.63;5.13;;;9.40;99.90;;;;;;5087127;28;20181;-64
2021/05/25 05:18:53;;;;;;;5.87;5.47;;;9.30;99.90;;;;;;5075890;28;20170;-64
2021/05/25 05:21:19;;;;;;;6.20;5.00;;;9.30;99.90;;;;;;5081809;28;20190;-64
2021/05/25 05:23:44;;;;;;;5.10;4.80;;;9.30;99.90;;;;;;5073477;28;20158;-64
2021/05/25 05:26:11;;;;;;;6.00;5.53;;;9.20;99.90;;;;;;5089118;28;20180;-64
2021/05/25 05:28:37;;;;;;;5.77;5.27;;;9.10;99.90;;;;;;5082829;28;20644;-64
2021/05/25 05:31:02;;;;;;;5.67;5.20;;;9.00;99.90;;;;;;5080277;28;20219;-64
2021/05/25 05:33:28;;;;;;;6.17;5.57;;;8.90;99.90;;;;;;5093249;28;20244;-64
2021/05/25 05:35:54;;;;;;;5.70;5.30;;;8.90;99.90;;;;;;5058972;28;20678;-64
2021/05/25 05:38:21;;;;;;;8.20;6.17;;;8.90;99.90;;;;;;5074160;28;20263;-64
2021/05/25 05:40:47;;;;;;;5.73;5.33;;;8.90;99.90;;;;;;5079286;28;20189;-64
2021/05/25 05:43:13;;;;;;;7.93;6.30;;;8.80;99.90;;;;;;5093174;28;20705;-64
2021/05/25 05:45:38;;;;;;;6.67;6.13;;;8.80;99.90;;;;;;5087477;28;20248;-65
2021/05/25 05:48:05;;;;;;;6.40;5.90;;;8.80;99.90;;;;;;5072949;28;20588;-64
2021/05/25 05:50:31;;;;;;;7.03;6.40;;;8.90;99.90;;;;;;5073233;28;20651;-64
2021/05/25 05:52:57;;;;;;;6.03;5.63;;;8.90;99.90;;;;;;5084628;28;20193;-64
2021/05/25 05:55:23;;;;;;;5.40;5.00;;;8.90;99.90;;;;;;5090507;28;20283;-64
2021/05/25 05:57:49;;;;;;;5.37;4.87;;;8.90;99.90;;;;;;5079236;28;20178;-64
2021/05/25 06:00:15;;;;;;;6.93;5.17;;;8.90;99.90;;;;;;5091855;28;20193;-64
2021/05/25 06:02:41;;;;;;;5.33;4.83;;;8.90;99.90;;;;;;5088630;28;20242;-65
2021/05/25 06:05:07;;;;;;;5.17;4.87;;;9.00;99.90;;;;;;5092435;28;20174;-64
2021/05/25 06:07:33;;;;;;;5.40;5.00;;;9.00;99.90;;;;;;5089589;28;20184;-64
2021/05/25 06:10:01;;;;;;;6.00;5.40;;;9.10;99.90;;;;;;5092001;28;20198;-64
2021/05/25 06:12:27;;;;;;;7.33;5.20;;;9.20;99.90;;;;;;5069232;28;20272;-64
2021/05/25 06:14:52;;;;;;;4.77;4.40;;;9.40;99.90;;;;;;5092498;28;20252;-64
2021/05/25 06:17:18;;;;;;;5.10;4.80;;;9.50;99.90;;;;;;5073914;28;20208;-64
2021/05/25 06:19:44;;;;;;;8.23;7.80;;;9.60;99.90;;;;;;5071861;28;20285;-64
2021/05/25 06:22:11;;;;;;;5.93;5.63;;;9.60;99.90;;;;;;5088917;28;20209;-64
2021/05/25 06:24:37;;;;;;;5.23;4.73;;;9.60;99.90;;;;;;5088348;28;20632;-64
2021/05/25 06:27:03;;;;;;;5.60;5.30;;;9.60;99.90;;;;;;5071879;28;20186;-64
2021/05/25 06:29:29;;;;;;;5.17;4.70;;;9.50;99.90;;;;;;5073070;28;20310;-64
2021/05/25 06:31:59;;;;;;;5.27;4.97;;;9.40;99.90;;;;;;5085208;28;20616;-64
2021/05/25 06:34:28;;;;;;;6.67;6.23;;;9.40;99.90;;;;;;5072420;28;20190;-63
2021/05/25 06:36:55;;;;;;;5.57;5.10;;;9.40;99.90;;;;;;5076842;28;20190;-63
2021/05/25 06:39:21;;;;;;;5.60;5.20;;;9.30;99.90;;;;;;5071696;28;20255;-64
2021/05/25 06:41:46;;;;;;;7.17;5.17;;;9.20;99.90;;;;;;5079789;28;20190;-64
2021/05/25 06:44:12;;;;;;;5.50;5.10;;;9.20;99.90;;;;;;5072012;28;20216;-64
2021/05/25 06:46:38;;;;;;;5.20;4.90;;;9.20;99.90;;;;;;5089208;28;20267;-65
2021/05/25 06:49:03;;;;;;;5.13;4.77;;;9.10;99.90;;;;;;5091785;28;20193;-65
2021/05/25 06:51:29;;;;;;;4.90;4.50;;;9.10;99.90;;;;;;5067929;28;20185;-65
2021/05/25 06:53:55;;;;;;;5.53;5.13;;;9.00;99.90;;;;;;5091767;28;20181;-65
2021/05/25 06:56:20;;;;;;;7.27;6.67;;;9.10;99.90;;;;;;5090031;28;20247;-65
2021/05/25 06:58:46;;;;;;;20.47;17.73;;;9.10;99.90;;;;;;5075272;28;20186;-65
2021/05/25 07:01:12;;;;;;;20.47;18.60;;;9.10;99.90;;;;;;5079599;28;20186;-65
2021/05/25 07:03:37;;;;;;;5.90;5.57;;;9.10;99.90;;;;;;5072174;28;20562;-65
2021/05/25 07:06:03;;;;;;;7.40;7.00;;;8.90;99.90;;;;;;5079963;28;20213;-65
2021/05/25 07:08:29;;;;;;;6.70;6.40;;;8.80;99.90;;;;;;5052999;28;20193;-65
2021/05/25 07:10:55;;;;;;;4.60;4.40;;;8.80;99.90;;;;;;5075864;28;20217;-65
2021/05/25 07:13:20;;;;;;;9.27;5.40;;;8.60;99.90;;;;;;5071472;28;20555;-65
2021/05/25 07:15:46;;;;;;;5.27;4.97;;;8.60;99.90;;;;;;5075184;28;20177;-66
2021/05/25 07:18:16;;;;;;;5.00;4.73;;;8.50;99.90;;;;;;5091478;28;20631;-66
2021/05/25 07:20:43;;;;;;;5.57;5.27;;;8.50;99.90;;;;;;5087227;28;20201;-66
2021/05/25 07:23:09;;;;;;;5.13;4.83;;;8.40;99.90;;;;;;5071302;28;20235;-65
2021/05/25 07:25:34;;;;;;;5.47;4.97;;;8.30;99.90;;;;;;5072310;28;20694;-65
2021/05/25 07:28:00;;;;;;;5.47;5.17;;;8.20;99.90;;;;;;5080598;28;20260;-66
2021/05/25 07:30:26;;;;;;;5.23;4.73;;;8.10;99.90;;;;;;5076349;28;20296;-66
2021/05/25 07:32:52;;;;;;;4.83;4.60;;;8.00;99.90;;;;;;5083438;28;20533;-66
2021/05/25 07:35:18;;;;;;;5.80;5.50;;;8.00;99.90;;;;;;5089477;28;20177;-67
2021/05/25 07:37:43;;;;;;;5.90;5.60;;;8.10;99.90;;;;;;5070900;28;20524;-66
2021/05/25 07:40:10;;;;;;;7.07;6.77;;;8.20;99.90;;;;;;5070797;28;20678;-65
2021/05/25 07:42:36;;;;;;;6.33;6.03;;;8.50;99.90;;;;;;5074857;28;20197;-65
2021/05/25 07:45:02;;;;;;;6.03;5.73;;;8.70;99.90;;;;;;5090593;28;20552;-65
2021/05/25 07:47:29;;;;;;;5.80;5.50;;;8.90;99.90;;;;;;5091119;28;20173;-65
2021/05/25 07:49:55;;;;;;;7.00;6.40;;;9.20;99.90;;;;;;5074937;28;20308;-65
2021/05/25 07:52:21;;;;;;;6.90;6.40;;;9.50;99.90;;;;;;5075123;28;20590;-65
2021/05/25 07:54:47;;;;;;;6.30;5.70;;;9.90;99.90;;;;;;5092188;28;20185;-65
2021/05/25 07:57:12;;;;;;;5.60;5.13;;;10.10;99.90;;;;;;5093337;28;20234;-66
2021/05/25 07:59:38;;;;;;;4.87;4.60;;;10.60;99.90;;;;;;5094636;28;20288;-65
2021/05/25 08:02:04;;;;;;;4.43;4.23;;;11.10;99.90;;;;;;5085784;28;20193;-66
2021/05/25 08:04:30;;;;;;;4.97;4.67;;;11.90;99.90;;;;;;5056676;28;20197;-66
2021/05/25 08:06:56;;;;;;;7.03;6.57;;;12.60;99.90;;;;;;5089628;28;20181;-66
2021/05/25 08:09:21;;;;;;;7.40;7.00;;;13.20;99.90;;;;;;5094757;28;20205;-65
2021/05/25 08:11:47;;;;;;;15.20;14.03;;;13.20;99.90;;;;;;5089097;28;20184;-65
2021/05/25 08:14:13;;;;;;;8.13;7.63;;;12.90;99.90;;;;;;5094802;28;20626;-65
2021/05/25 08:16:41;;;;;;;6.13;5.60;;;12.90;99.90;;;;;;5081309;28;20662;-65
2021/05/25 08:19:24;;;;;;;10.90;10.27;;;13.10;99.90;;;;;;5074432;28;20197;-66
2021/05/25 08:21:50;;;;;;;6.70;6.17;;;13.20;99.90;;;;;;5075243;28;20251;-66
2021/05/25 08:24:16;;;;;;;6.90;6.37;;;13.00;99.90;;;;;;5074357;28;20170;-65
2021/05/25 08:26:41;;;;;;;12.00;11.37;;;12.80;99.90;;;;;;5086717;28;20192;-65
2021/05/25 08:29:07;;;;;;;5.33;5.00;;;12.50;99.90;;;;;;5062356;28;20197;-65
2021/05/25 08:31:32;;;;;;;4.90;4.70;;;12.50;99.90;;;;;;5084880;28;20235;-65
2021/05/25 08:33:58;;;;;;;6.00;5.70;;;12.40;99.90;;;;;;5064548;28;20182;-66
2021/05/25 08:36:24;;;;;;;4.87;4.57;;;12.60;99.90;;;;;;5083518;28;20256;-65
2021/05/25 08:38:49;;;;;;;6.87;6.37;;;12.80;99.90;;;;;;5093168;28;20177;-65
2021/05/25 08:41:15;;;;;;;13.93;9.47;;;12.70;99.90;;;;;;5075932;28;20593;-65
2021/05/25 08:43:41;;;;;;;7.47;6.97;;;13.00;99.90;;;;;;5073711;28;20186;-65
2021/05/25 08:46:07;;;;;;;7.43;7.07;;;12.80;99.90;;;;;;5080309;28;20216;-65
2021/05/25 08:48:38;;;;;;;9.03;8.60;;;12.70;99.90;;;;;;5073752;28;20190;-65
2021/05/25 08:51:04;;;;;;;4.80;4.60;;;12.50;99.90;;;;;;5086724;28;20209;-65
2021/05/25 08:53:30;;;;;;;4.80;4.50;;;12.40;99.90;;;;;;5073700;28;20579;-65
2021/05/25 08:55:56;;;;;;;5.33;5.00;;;12.30;99.90;;;;;;5093259;28;20308;-66
2021/05/25 08:58:23;;;;;;;7.27;6.93;;;12.50;99.90;;;;;;5092186;28;20177;-66
2021/05/25 09:00:53;;;;;;;6.10;5.80;;;12.80;99.90;;;;;;5089404;28;20197;-66
2021/05/25 09:03:21;;;;;;;6.00;5.70;;;12.90;99.90;;;;;;5093089;28;20181;-65
2021/05/25 09:05:54;;;;;;;5.93;5.63;;;12.90;99.90;;;;;;5074543;28;20209;-66
2021/05/25 09:08:20;;;;;;;5.53;5.23;;;12.90;99.90;;;;;;5073538;28;20184;-66
2021/05/25 09:10:47;;;;;;;6.43;6.03;;;12.90;99.90;;;;;;5083483;28;20217;-66
2021/05/25 09:13:21;;;;;;;8.27;7.83;;;13.10;99.90;;;;;;5073472;28;20236;-65
2021/05/25 09:15:58;;;;;;;10.00;9.50;;;13.20;99.90;;;;;;5087178;28;20177;-66
2021/05/25 09:18:29;;;;;;;8.20;7.70;;;13.90;99.90;;;;;;5073235;28;20181;-66
2021/05/25 09:21:05;;;;;;;5.33;5.03;;;14.00;99.90;;;;;;5085996;28;20821;-64
2021/05/25 09:23:34;;;;;;;5.10;4.80;;;13.80;99.90;;;;;;5073022;28;20174;-64
2021/05/25 09:26:07;;;;;;;11.33;10.73;;;13.20;99.90;;;;;;5080449;28;20181;-64
2021/05/25 09:28:52;;;;;;;5.60;5.10;;;12.80;99.90;;;;;;5091435;28;20217;-64
2021/05/25 09:31:24;;;;;;;6.40;6.00;;;13.20;99.90;;;;;;5080010;28;20577;-64
2021/05/25 09:34:24;;;;;;;6.57;6.17;;;13.40;99.90;;;;;;5076896;28;20184;-64
2021/05/25 09:37:04;;;;;;;7.13;6.53;;;13.30;99.90;;;;;;5048762;28;20185;-64
2021/05/25 09:39:50;;;;;;;6.23;5.73;;;13.20;99.90;;;;;;5083523;28;20240;-64
2021/05/25 09:42:17;;;;;;;6.37;5.87;;;12.80;99.90;;;;;;5072999;28;20170;-64
2021/05/25 09:45:01;;;;;;;5.90;5.50;;;12.40;99.90;;;;;;5082579;28;20268;-64
2021/05/25 09:47:34;;;;;;;5.93;5.43;;;12.00;99.90;;;;;;5073264;28;20350;-64
2021/05/25 09:50:01;;;;;;;6.50;5.90;;;11.70;99.90;;;;;;5082147;28;20752;-64
2021/05/25 09:52:26;;;;;;;7.67;7.17;;;11.40;99.90;;;;;;5072568;28;20635;-64
2021/05/25 09:55:10;;;;;;;6.80;6.40;;;10.90;99.90;;;;;;5082796;28;20248;-64
2021/05/25 09:57:46;;;;;;;9.97;9.00;;;10.50;99.90;;;;;;5073657;28;20512;-66
2021/05/25 10:00:36;;;;;;;8.17;7.37;;;10.10;99.90;;;;;;5091944;28;20708;-64
2021/05/25 10:03:08;;;;;;;11.80;11.00;;;10.10;99.90;;;;;;5072340;28;20649;-64
2021/05/25 10:05:35;;;;;;;9.37;8.43;;;10.00;99.90;;;;;;5075929;28;20185;-64
2021/05/25 10:08:01;;;;;;;11.80;9.20;;;10.00;99.90;;;;;;5092502;28;20179;-66
2021/05/25 10:10:28;;;;;;;9.90;9.10;;;10.00;99.90;;;;;;5073408;28;20297;-67
2021/05/25 10:12:55;;;;;;;13.13;8.93;;;10.10;99.90;;;;;;5071834;28;20202;-67
2021/05/25 10:15:26;;;;;;;9.13;8.40;;;10.20;99.90;;;;;;5086074;28;20538;-64
2021/05/25 10:20:28;;;;;;;8.33;7.43;;;10.50;99.90;;;;;;5085158;28;20205;-64
2021/05/25 10:22:54;;;;;;;9.70;7.53;;;10.70;99.90;;;;;;5096962;22;20225;-65
2021/05/25 10:25:21;;;;;;;8.37;7.57;;;11.00;99.90;;;;;;5071812;28;20177;-65
2021/05/25 10:27:47;;;;;;;8.40;7.87;;;11.40;99.90;;;;;;5071593;28;20170;-65
2021/05/25 10:30:24;;;;;;;7.40;6.60;;;11.80;99.90;;;;;;5071602;28;20202;-65
2021/05/25 10:33:09;;;;;;;15.00;14.10;;;12.10;99.90;;;;;;5053842;28;20197;-65
2021/05/25 10:35:56;;;;;;;7.23;6.53;;;12.30;99.90;;;;;;5051024;28;20174;-65
2021/05/25 10:38:27;;;;;;;8.03;7.10;;;12.50;99.90;;;;;;5051921;28;20305;-65
2021/05/25 10:41:06;;;;;;;7.73;7.23;;;12.70;99.90;;;;;;5049887;28;20186;-65
2021/05/25 10:43:32;;;;;;;6.50;6.10;;;12.70;99.90;;;;;;5051687;28;20544;-66
2021/05/25 10:46:09;;;;;;;6.80;6.33;;;11.90;99.90;;;;;;5049818;28;20190;-65
2021/05/25 10:48:54;;;;;;;8.50;7.73;;;11.30;99.90;;;;;;5051619;28;20652;-65
2021/05/25 10:51:20;;;;;;;13.53;7.33;;;11.00;99.90;;;;;;5051032;28;20738;-65
2021/05/25 10:54:05;;;;;;;11.90;10.73;;;10.90;99.90;;;;;;5051653;28;20190;-65
2021/05/25 10:56:37;;;;;;;11.50;10.60;;;10.80;99.90;;;;;;5050899;28;20174;-67
2021/05/25 10:59:05;;;;;;;8.33;7.50;;;10.60;99.90;;;;;;5051509;28;20175;-65
2021/05/25 11:01:31;;;;;;;7.73;7.23;;;10.40;99.90;;;;;;5050421;28;20279;-64
2021/05/25 11:04:07;;;;;;;8.53;7.83;;;10.20;99.90;;;;;;5051423;28;20208;-65
2021/05/25 11:06:34;;;;;;;8.07;7.47;;;10.30;99.90;;;;;;5051037;28;20190;-66
2021/05/25 11:09:23;;;;;;;7.80;7.27;;;10.60;99.90;;;;;;5050882;28;20233;-65
2021/05/25 11:12:16;;;;;;;6.07;5.47;;;11.10;99.90;;;;;;5050979;28;20214;-65
2021/05/25 11:15:17;;;;;;;7.27;6.77;;;12.00;99.90;;;;;;5033450;28;20179;-65
2021/05/25 11:17:48;;;;;;;8.57;8.03;;;12.90;99.90;;;;;;5031487;28;20225;-66
2021/05/25 11:20:37;;;;;;;8.90;8.30;;;14.00;99.90;;;;;;5032492;28;20195;-65
2021/05/25 11:23:23;;;;;;;6.80;6.50;;;14.80;99.90;;;;;;5026577;28;20293;-64
2021/05/25 11:25:49;;;;;;;9.20;8.37;;;15.10;99.90;;;;;;5055092;28;20523;-64
2021/05/25 11:28:15;;;;;;;9.20;8.40;;;15.20;99.90;;;;;;5055312;28;20177;-65
2021/05/25 11:30:43;;;;;;;9.73;7.90;;;15.60;99.90;;;;;;5055149;28;20663;-65
2021/05/25 11:33:08;;;;;;;9.83;9.10;;;16.10;99.90;;;;;;5055393;28;20509;-64
2021/05/25 11:35:34;;;;;;;8.77;7.97;;;16.40;99.90;;;;;;5055025;28;20214;-65
2021/05/25 11:38:03;;;;;;;7.63;6.93;;;16.90;99.90;;;;;;5055317;28;20167;-64
2021/05/25 11:40:33;;;;;;;6.97;6.40;;;17.20;99.90;;;;;;5054503;28;20182;-65
2021/05/25 11:42:59;;;;;;;6.60;6.20;;;16.90;99.90;;;;;;5055079;28;20186;-65
2021/05/25 11:45:26;;;;;;;7.20;6.60;;;16.60;99.90;;;;;;5053837;28;20183;-64
2021/05/25 11:48:00;;;;;;;8.80;8.07;;;16.70;99.90;;;;;;5055234;28;20178;-64
2021/05/25 11:50:26;;;;;;;8.43;7.83;;;16.80;99.90;;;;;;5054358;28;20226;-65
2021/05/25 11:52:54;;;;;;;6.47;5.73;;;17.60;99.90;;;;;;5054768;28;20194;-64
2021/05/25 11:55:21;;;;;;;9.10;8.17;;;18.50;99.90;;;;;;5054934;28;20250;-65
2021/05/25 11:57:52;;;;;;;8.27;7.50;;;19.10;99.90;;;;;;5054666;28;20255;-64
2021/05/25 12:00:25;;;;;;;7.87;7.20;;;19.20;99.90;;;;;;5054602;28;20257;-65
2021/05/25 12:02:53;;;;;;;6.33;5.93;;;18.60;99.90;;;;;;5054766;28;20207;-65
2021/05/25 12:05:19;;;;;;;9.17;6.00;;;17.80;99.90;;;;;;5054630;28;20601;-65
2021/05/25 12:07:47;;;;;;;6.47;5.97;;;17.00;99.90;;;;;;5054917;28;20179;-65
2021/05/25 12:10:16;;;;;;;11.47;10.63;;;16.60;99.90;;;;;;5036214;28;20202;-65
2021/05/25 12:12:43;;;;;;;160.57;148.27;;;16.10;99.90;;;;;;5054559;28;20182;-65
2021/05/25 12:15:15;;;;;;;35.43;33.03;;;14.00;99.90;;;;;;5054264;28;20546;-65
2021/05/25 12:17:45;;;;;;;14.10;13.07;;;11.60;99.90;;;;;;5054699;28;20198;-66
2021/05/25 12:20:17;;;;;;;8.23;7.53;;;9.90;99.90;;;;;;5054039;28;20186;-65
2021/05/25 12:22:43;;;;;;;7.57;6.97;;;9.30;99.90;;;;;;5054178;28;20207;-64
2021/05/25 12:25:26;;;;;;;8.00;7.60;;;9.10;99.90;;;;;;5053920;28;20182;-66
2021/05/25 12:28:03;;;;;;;10.57;10.00;;;8.90;99.90;;;;;;5054603;28;20670;-64
2021/05/25 12:30:29;;;;;;;7.80;7.20;;;8.70;99.90;;;;;;5035796;28;20209;-66
2021/05/25 12:32:55;;;;;;;9.80;9.10;;;8.60;99.90;;;;;;5054289;28;20281;-65
2021/05/25 12:35:25;;;;;;;8.67;7.87;;;8.60;99.90;;;;;;5052765;28;20763;-65
2021/05/25 12:38:17;;;;;;;7.40;6.80;;;8.60;99.90;;;;;;5054291;28;20224;-66
2021/05/25 12:40:48;;;;;;;12.60;11.77;;;8.70;99.90;;;;;;5053606;28;20285;-65
2021/05/25 12:43:19;;;;;;;6.43;5.90;;;8.70;99.90;;;;;;5054186;28;20175;-66
2021/05/25 12:45:46;;;;;;;9.13;8.73;;;8.80;99.90;;;;;;5035977;28;20523;-66
2021/05/25 12:48:12;;;;;;;9.73;8.50;;;9.10;99.90;;;;;;5054015;28;20213;-68
2021/05/25 12:50:41;;;;;;;5.63;5.33;;;9.40;99.90;;;;;;5053388;28;20206;-64
2021/05/25 12:53:12;;;;;;;6.17;5.70;;;9.70;99.90;;;;;;5053259;28;20206;-63
2021/05/25 12:55:55;;;;;;;5.00;4.80;;;10.20;99.90;;;;;;5053743;28;20209;-64
2021/05/25 12:58:33;;;;;;;5.40;5.10;;;10.70;99.90;;;;;;5034066;28;20164;-64
2021/05/25 13:00:58;;;;;;;5.87;5.47;;;11.10;99.90;;;;;;5039468;28;20179;-64
2021/05/25 13:03:31;;;;;;;5.30;5.00;;;11.00;99.90;;;;;;5053782;28;20174;-65
2021/05/25 13:06:11;;;;;;;5.87;5.57;;;10.80;99.90;;;;;;5035848;28;20182;-66
2021/05/25 13:08:36;;;;;;;5.87;5.27;;;10.60;99.90;;;;;;5053574;28;20249;-66